Time;durP1;ratioP1;P1;durP2;ratioP2;P2;SDS_P1;SDS_P2;PMS_P1;PMS_P2;Temp;Humidity;BMP_temperature;BMP_pressure;BME280_temperature;BME280_humidity;BME280_pressure;Samples;Min_cycle;Max_cycle;Signal;HPM_P1;HPM_P2
2021/04/18 00:00:57;;;;;;;10.40;8.53;;;5.40;99.70;;;;;;5012812;28;20196;-62
2021/04/18 00:03:23;;;;;;;11.43;8.53;;;5.30;99.60;;;;;;5012778;28;20201;-62
2021/04/18 00:05:49;;;;;;;8.83;7.30;;;5.30;99.60;;;;;;5012866;28;20247;-62
2021/04/18 00:08:15;;;;;;;6.30;5.80;;;5.10;99.60;;;;;;5013121;28;20181;-61
2021/04/18 00:10:40;;;;;;;7.20;6.60;;;5.10;99.70;;;;;;5012970;28;20427;-62
2021/04/18 00:13:09;;;;;;;8.53;8.07;;;4.90;99.40;;;;;;5012788;28;20264;-60
2021/04/18 00:15:35;;;;;;;7.10;6.60;;;4.90;99.00;;;;;;5013322;28;20191;-61
2021/04/18 00:18:01;;;;;;;7.10;6.20;;;4.80;99.80;;;;;;5012615;28;20897;-61
2021/04/18 00:20:27;;;;;;;10.23;5.97;;;4.70;99.90;;;;;;5011516;28;20436;-60
2021/04/18 00:22:52;;;;;;;6.67;6.27;;;4.60;99.90;;;;;;5012792;28;20204;-60
2021/04/18 00:25:19;;;;;;;7.80;7.10;;;4.60;99.90;;;;;;5012850;28;20244;-59
2021/04/18 00:27:46;;;;;;;6.83;6.07;;;4.60;99.90;;;;;;5013041;28;20404;-62
2021/04/18 00:30:17;;;;;;;6.27;5.67;;;4.50;99.60;;;;;;5012871;28;20428;-61
2021/04/18 00:32:43;;;;;;;7.03;6.43;;;4.50;99.90;;;;;;5012654;28;20416;-61
2021/04/18 00:35:10;;;;;;;6.20;5.60;;;4.40;99.90;;;;;;5013100;28;20408;-61
2021/04/18 00:37:36;;;;;;;7.13;6.30;;;4.40;99.90;;;;;;5012828;28;20220;-61
2021/04/18 00:40:07;;;;;;;6.13;5.43;;;4.30;99.90;;;;;;5012714;28;20812;-62
2021/04/18 00:42:33;;;;;;;6.47;5.97;;;4.30;99.90;;;;;;5013472;28;20772;-61
2021/04/18 00:44:58;;;;;;;5.33;4.93;;;4.30;99.90;;;;;;5013338;28;20401;-62
2021/04/18 00:47:24;;;;;;;7.60;6.10;;;4.30;99.90;;;;;;5019968;28;20668;-62
2021/04/18 00:49:50;;;;;;;5.80;5.30;;;4.20;99.90;;;;;;5032594;28;20261;-60
2021/04/18 00:52:15;;;;;;;5.90;5.40;;;4.20;99.90;;;;;;5033920;28;20180;-61
2021/04/18 00:54:41;;;;;;;5.03;4.63;;;4.10;99.90;;;;;;5033586;28;20310;-62
2021/04/18 00:57:07;;;;;;;5.93;5.43;;;4.10;99.90;;;;;;5025434;28;20649;-62
2021/04/18 00:59:34;;;;;;;6.93;5.67;;;4.10;99.90;;;;;;5013409;28;20270;-62
2021/04/18 01:02:00;;;;;;;6.87;6.27;;;4.10;99.90;;;;;;5014640;28;20498;-62
2021/04/18 01:04:26;;;;;;;5.73;5.23;;;4.00;99.90;;;;;;5017984;28;20771;-61
2021/04/18 01:06:52;;;;;;;6.93;5.90;;;4.00;99.90;;;;;;5018362;28;20405;-62
2021/04/18 01:09:18;;;;;;;6.93;6.33;;;4.00;99.90;;;;;;5016680;28;20731;-62
2021/04/18 01:11:44;;;;;;;6.50;5.90;;;4.00;99.90;;;;;;5018523;28;20412;-62
2021/04/18 01:14:10;;;;;;;5.53;5.10;;;4.00;99.90;;;;;;5018674;28;20400;-61
2021/04/18 01:16:35;;;;;;;6.37;5.77;;;3.90;99.90;;;;;;5018871;28;20174;-62
2021/04/18 01:19:01;;;;;;;6.07;5.57;;;4.00;99.90;;;;;;5017677;28;20181;-61
2021/04/18 01:21:26;;;;;;;6.53;5.67;;;3.90;99.90;;;;;;5018042;28;20230;-62
2021/04/18 01:23:53;;;;;;;6.70;6.30;;;3.90;99.90;;;;;;5017989;28;20201;-62
2021/04/18 01:26:19;;;;;;;6.80;6.40;;;3.80;99.90;;;;;;5017999;28;20299;-61
2021/04/18 01:28:44;;;;;;;8.00;5.70;;;3.80;99.90;;;;;;5018486;28;20455;-62
2021/04/18 01:31:10;;;;;;;9.17;7.03;;;3.70;99.90;;;;;;5018225;28;20216;-61
2021/04/18 01:33:36;;;;;;;8.90;8.27;;;3.70;99.90;;;;;;5017171;28;20294;-62
2021/04/18 01:36:04;;;;;;;8.73;7.47;;;3.70;99.90;;;;;;5016430;28;20173;-62
2021/04/18 01:38:30;;;;;;;7.20;6.60;;;3.70;99.90;;;;;;5015621;28;20408;-62
2021/04/18 01:40:57;;;;;;;8.03;7.23;;;3.60;99.90;;;;;;5016508;28;20505;-61
2021/04/18 01:43:23;;;;;;;8.87;7.97;;;3.60;99.90;;;;;;5015009;28;20525;-60
2021/04/18 01:45:49;;;;;;;7.37;6.67;;;3.50;99.90;;;;;;5016339;28;20901;-62
2021/04/18 01:48:15;;;;;;;8.17;7.37;;;3.40;99.90;;;;;;5015666;28;20358;-61
2021/04/18 01:50:43;;;;;;;6.90;6.33;;;3.30;99.90;;;;;;5016909;28;20424;-61
2021/04/18 01:53:09;;;;;;;7.47;6.77;;;3.20;99.90;;;;;;5017099;28;20412;-61
2021/04/18 01:55:36;;;;;;;7.20;6.70;;;3.10;99.90;;;;;;5015925;28;20908;-60
2021/04/18 01:58:02;;;;;;;5.40;5.03;;;3.00;99.90;;;;;;5017517;28;20754;-60
2021/04/18 02:00:28;;;;;;;5.57;5.20;;;2.90;99.90;;;;;;5018074;28;20754;-61
2021/04/18 02:02:53;;;;;;;6.40;5.90;;;2.90;99.90;;;;;;5017574;28;20456;-61
2021/04/18 02:05:20;;;;;;;6.17;5.63;;;2.90;99.90;;;;;;5018267;28;20170;-61
2021/04/18 02:07:45;;;;;;;6.40;5.80;;;2.80;99.90;;;;;;5017008;28;20205;-62
2021/04/18 02:10:11;;;;;;;9.40;7.23;;;2.80;99.90;;;;;;5018328;28;20433;-62
2021/04/18 02:12:37;;;;;;;7.73;6.80;;;2.80;99.90;;;;;;5018482;28;20178;-62
2021/04/18 02:15:04;;;;;;;7.53;6.90;;;2.70;99.90;;;;;;5017605;28;20260;-61
2021/04/18 02:17:30;;;;;;;6.77;6.17;;;2.70;99.90;;;;;;5017409;28;20181;-61
2021/04/18 02:19:55;;;;;;;8.83;6.40;;;2.60;99.90;;;;;;5016560;28;20446;-61
2021/04/18 02:22:21;;;;;;;7.03;6.47;;;2.50;99.90;;;;;;5016812;28;20207;-62
2021/04/18 02:24:47;;;;;;;10.97;6.20;;;2.50;99.90;;;;;;5016669;28;20169;-60
2021/04/18 02:27:12;;;;;;;7.60;6.90;;;2.40;99.90;;;;;;5016332;28;20176;-61
2021/04/18 02:29:38;;;;;;;6.67;6.20;;;2.40;99.90;;;;;;5016594;28;20584;-62
2021/04/18 02:32:04;;;;;;;9.53;6.90;;;2.30;99.90;;;;;;5016313;28;20173;-62
2021/04/18 02:34:29;;;;;;;6.43;5.90;;;2.20;99.90;;;;;;5016581;28;20182;-61
2021/04/18 02:36:55;;;;;;;7.40;6.77;;;2.30;99.90;;;;;;5015958;28;20412;-61
2021/04/18 02:39:21;;;;;;;6.10;5.60;;;2.20;99.90;;;;;;5015870;28;20197;-61
2021/04/18 02:41:46;;;;;;;8.93;6.13;;;2.20;99.90;;;;;;5015391;28;20213;-60
2021/04/18 02:44:12;;;;;;;6.20;5.80;;;2.10;99.90;;;;;;5015375;28;20219;-61
2021/04/18 02:46:37;;;;;;;5.90;5.50;;;2.10;99.90;;;;;;5015351;28;20589;-60
2021/04/18 02:49:03;;;;;;;5.73;5.30;;;1.90;99.90;;;;;;5014397;28;20176;-62
2021/04/18 02:51:30;;;;;;;5.43;5.13;;;2.10;99.90;;;;;;5014716;28;20173;-62
2021/04/18 02:53:59;;;;;;;5.67;5.30;;;2.00;99.90;;;;;;5014722;28;20410;-62
2021/04/18 02:56:25;;;;;;;6.17;5.67;;;2.00;99.90;;;;;;5014800;28;20418;-62
2021/04/18 02:58:50;;;;;;;6.67;5.37;;;2.00;99.90;;;;;;5014409;28;20409;-62
2021/04/18 03:01:16;;;;;;;5.70;5.30;;;2.10;99.90;;;;;;5014792;28;20412;-61
2021/04/18 03:03:42;;;;;;;7.50;6.90;;;2.00;99.90;;;;;;5014540;28;20216;-62
2021/04/18 03:06:09;;;;;;;5.87;5.53;;;1.90;99.90;;;;;;5015041;28;20404;-60
2021/04/18 03:08:34;;;;;;;6.38;5.93;;;1.90;99.90;;;;;;5014256;28;20173;-61
2021/04/18 03:11:00;;;;;;;6.70;6.20;;;2.00;99.90;;;;;;5014840;28;20661;-61
2021/04/18 03:13:25;;;;;;;5.97;5.47;;;2.00;99.90;;;;;;5014430;28;20175;-61
2021/04/18 03:15:51;;;;;;;7.90;6.03;;;2.00;99.90;;;;;;5014518;28;20184;-61
2021/04/18 03:18:17;;;;;;;5.73;5.27;;;2.10;99.90;;;;;;5013806;28;20256;-62
2021/04/18 03:20:42;;;;;;;6.37;5.77;;;2.00;99.90;;;;;;5014341;28;20195;-62
2021/04/18 03:23:08;;;;;;;6.77;5.93;;;2.10;99.90;;;;;;5014099;28;20749;-60
2021/04/18 03:25:34;;;;;;;7.03;5.50;;;2.10;99.90;;;;;;5013699;28;20184;-59
2021/04/18 03:27:59;;;;;;;8.80;6.27;;;2.20;99.90;;;;;;5014028;28;20178;-62
2021/04/18 03:30:25;;;;;;;12.23;5.60;;;2.30;99.90;;;;;;5014275;28;20565;-61
2021/04/18 03:32:51;;;;;;;8.13;7.43;;;2.20;99.90;;;;;;5014129;28;20301;-60
2021/04/18 03:35:16;;;;;;;6.23;5.83;;;2.30;99.90;;;;;;5014357;28;20267;-61
2021/04/18 03:37:42;;;;;;;7.20;6.03;;;2.30;99.90;;;;;;5013940;28;20660;-60
2021/04/18 03:40:08;;;;;;;6.27;5.77;;;2.30;99.90;;;;;;5013932;28;20200;-62
2021/04/18 03:42:34;;;;;;;6.40;5.90;;;2.30;99.90;;;;;;5014461;28;20197;-62
2021/04/18 03:44:59;;;;;;;5.97;5.47;;;2.30;99.90;;;;;;5012950;28;20425;-62
2021/04/18 03:47:25;;;;;;;8.40;7.53;;;2.30;99.90;;;;;;5014269;28;20176;-61
2021/04/18 03:49:50;;;;;;;7.07;6.00;;;2.30;99.90;;;;;;5013687;28;20581;-60
2021/04/18 03:52:16;;;;;;;6.27;5.77;;;2.30;99.90;;;;;;5014268;28;20549;-61
2021/04/18 03:54:42;;;;;;;6.10;5.60;;;2.40;99.90;;;;;;5014386;28;20173;-62
2021/04/18 03:57:08;;;;;;;5.20;4.90;;;2.40;99.90;;;;;;5013304;28;20669;-62
2021/04/18 03:59:33;;;;;;;7.85;6.20;;;2.40;99.90;;;;;;5012977;28;20189;-62
2021/04/18 04:01:59;;;;;;;7.50;5.80;;;2.40;99.90;;;;;;5013341;28;20201;-62
2021/04/18 04:04:25;;;;;;;6.30;5.73;;;2.40;99.90;;;;;;5013209;28;20211;-62
2021/04/18 04:06:51;;;;;;;6.73;5.63;;;2.40;99.90;;;;;;5013347;28;20638;-62
2021/04/18 04:09:17;;;;;;;5.22;4.82;;;2.30;99.90;;;;;;5012733;28;20207;-62
2021/04/18 04:11:42;;;;;;;6.00;5.50;;;2.30;99.90;;;;;;5013337;28;20169;-61
2021/04/18 04:14:08;;;;;;;8.73;5.60;;;2.40;99.90;;;;;;5012841;28;20667;-63
2021/04/18 04:16:33;;;;;;;6.60;6.10;;;2.50;99.90;;;;;;5012963;28;20169;-63
2021/04/18 04:18:59;;;;;;;5.80;5.40;;;2.50;99.90;;;;;;5012170;28;20180;-62
2021/04/18 04:21:25;;;;;;;6.40;5.90;;;2.50;99.90;;;;;;5012680;28;20258;-60
2021/04/18 04:23:50;;;;;;;6.50;6.00;;;2.50;99.90;;;;;;5012943;28;20162;-61
2021/04/18 04:26:16;;;;;;;6.63;6.03;;;2.50;99.90;;;;;;5013155;28;20339;-63
2021/04/18 04:28:41;;;;;;;5.90;5.50;;;2.60;99.90;;;;;;5012549;28;20181;-62
2021/04/18 04:31:07;;;;;;;7.47;6.83;;;2.60;99.90;;;;;;5012825;28;20208;-62
2021/04/18 04:33:34;;;;;;;7.00;6.40;;;2.60;99.90;;;;;;5012759;28;20180;-63
2021/04/18 04:36:00;;;;;;;7.93;7.13;;;2.60;99.90;;;;;;5012713;28;20230;-62
2021/04/18 04:38:25;;;;;;;6.10;5.57;;;2.70;99.90;;;;;;5012486;28;20408;-62
2021/04/18 04:40:51;;;;;;;7.90;7.40;;;2.70;99.90;;;;;;5012746;28;20230;-62
2021/04/18 04:43:17;;;;;;;9.03;6.30;;;2.70;99.90;;;;;;5012647;28;20287;-63
2021/04/18 04:45:42;;;;;;;7.43;6.70;;;2.70;99.90;;;;;;5012936;28;20165;-62
2021/04/18 04:48:08;;;;;;;8.30;5.80;;;2.70;99.90;;;;;;5012242;28;20169;-62
2021/04/18 04:50:33;;;;;;;6.03;5.60;;;2.70;99.90;;;;;;5012786;28;20274;-61
2021/04/18 04:52:59;;;;;;;7.73;7.00;;;2.70;99.90;;;;;;5012831;28;20400;-63
2021/04/18 04:55:25;;;;;;;8.10;6.30;;;2.70;99.90;;;;;;5012840;28;20172;-62
2021/04/18 04:57:50;;;;;;;7.50;6.90;;;2.70;99.90;;;;;;5012513;28;20637;-62
2021/04/18 05:00:16;;;;;;;7.53;5.17;;;2.70;99.90;;;;;;5012344;28;20197;-62
2021/04/18 05:02:42;;;;;;;6.67;6.03;;;2.60;99.90;;;;;;5012804;28;20197;-61
2021/04/18 05:05:08;;;;;;;6.20;5.60;;;2.70;99.90;;;;;;5012212;28;20404;-62
2021/04/18 05:07:34;;;;;;;6.50;5.93;;;2.60;99.90;;;;;;5012553;28;20173;-62
2021/04/18 05:09:59;;;;;;;6.50;5.90;;;2.50;99.90;;;;;;5011886;28;21136;-62
2021/04/18 05:12:25;;;;;;;6.90;6.27;;;2.60;99.90;;;;;;5012239;28;20615;-62
2021/04/18 05:14:50;;;;;;;6.67;6.10;;;2.70;99.90;;;;;;5012202;28;20653;-62
2021/04/18 05:17:16;;;;;;;7.77;6.93;;;2.70;99.90;;;;;;5012086;28;20551;-63
2021/04/18 05:19:41;;;;;;;5.80;5.40;;;2.70;99.90;;;;;;5011733;28;20569;-62
2021/04/18 05:22:07;;;;;;;9.37;6.33;;;2.70;99.90;;;;;;5011944;28;20204;-63
2021/04/18 05:24:32;;;;;;;5.80;5.50;;;2.80;99.90;;;;;;5011855;28;20165;-62
2021/04/18 05:26:58;;;;;;;7.10;6.47;;;2.80;99.90;;;;;;5012117;28;20172;-63
2021/04/18 05:29:24;;;;;;;5.00;4.60;;;2.80;99.90;;;;;;5011424;28;20189;-63
2021/04/18 05:31:49;;;;;;;6.30;5.80;;;2.80;99.90;;;;;;5011823;28;20173;-63
2021/04/18 05:34:15;;;;;;;5.63;5.20;;;2.90;99.90;;;;;;5011696;28;20173;-62
2021/04/18 05:36:40;;;;;;;6.63;6.10;;;2.90;99.90;;;;;;5011934;28;20173;-63
2021/04/18 05:39:08;;;;;;;6.80;6.20;;;2.90;99.90;;;;;;5011253;28;20172;-63
2021/04/18 05:41:35;;;;;;;5.93;5.47;;;2.90;99.90;;;;;;5011556;28;20193;-62
2021/04/18 05:44:02;;;;;;;6.13;5.63;;;2.90;99.90;;;;;;5011623;28;20755;-63
2021/04/18 05:46:27;;;;;;;6.90;6.30;;;2.90;99.90;;;;;;5011632;28;20446;-63
2021/04/18 05:48:53;;;;;;;10.63;6.10;;;3.00;99.90;;;;;;5012219;28;20439;-63
2021/04/18 05:51:18;;;;;;;6.70;4.70;;;3.00;99.90;;;;;;5015243;28;20176;-62
2021/04/18 05:53:44;;;;;;;5.90;5.40;;;3.00;99.90;;;;;;5015530;28;20656;-63
2021/04/18 05:56:09;;;;;;;7.90;6.07;;;3.10;99.90;;;;;;5015313;28;20677;-62
2021/04/18 05:58:35;;;;;;;6.70;6.10;;;3.20;99.90;;;;;;5014772;28;20173;-63
2021/04/18 06:01:01;;;;;;;6.17;5.67;;;3.20;99.90;;;;;;5014839;28;20224;-62
2021/04/18 06:03:26;;;;;;;7.17;6.57;;;3.30;99.90;;;;;;5015130;28;20556;-62
2021/04/18 06:05:52;;;;;;;7.27;5.60;;;3.30;99.90;;;;;;5014810;28;20187;-61
2021/04/18 06:08:17;;;;;;;6.63;5.97;;;3.40;99.90;;;;;;5014566;28;20174;-63
2021/04/18 06:10:43;;;;;;;6.20;5.77;;;3.40;99.90;;;;;;5014761;28;20200;-62
2021/04/18 06:13:08;;;;;;;7.07;6.10;;;3.40;99.90;;;;;;5014789;28;20184;-60
2021/04/18 06:15:34;;;;;;;9.70;6.40;;;3.50;99.90;;;;;;5014511;28;20644;-61
2021/04/18 06:18:00;;;;;;;6.87;6.17;;;3.50;99.90;;;;;;5014588;28;20513;-62
2021/04/18 06:20:25;;;;;;;6.23;5.73;;;3.50;99.90;;;;;;5014335;28;20247;-62
2021/04/18 06:22:51;;;;;;;7.37;5.97;;;3.60;99.90;;;;;;5014628;28;20284;-63
2021/04/18 06:25:17;;;;;;;5.40;5.00;;;3.70;99.90;;;;;;5014474;28;20659;-61
2021/04/18 06:27:43;;;;;;;6.70;5.87;;;3.70;99.90;;;;;;5014502;28;20170;-63
2021/04/18 06:30:10;;;;;;;8.10;5.93;;;3.70;99.90;;;;;;5013925;28;20185;-62
2021/04/18 06:32:36;;;;;;;7.80;7.20;;;3.80;99.90;;;;;;5014551;28;20400;-62
2021/04/18 06:35:02;;;;;;;7.23;6.63;;;3.90;99.90;;;;;;5014329;28;20519;-62
2021/04/18 06:37:27;;;;;;;6.30;5.40;;;4.00;99.90;;;;;;5014362;28;20173;-63
2021/04/18 06:39:53;;;;;;;5.70;5.27;;;4.00;99.90;;;;;;5013676;28;20428;-63
2021/04/18 06:42:22;;;;;;;6.40;6.00;;;4.00;99.90;;;;;;5014146;28;20316;-63
2021/04/18 06:44:48;;;;;;;6.10;5.60;;;4.10;99.90;;;;;;5013986;28;20177;-62
2021/04/18 06:47:14;;;;;;;6.93;5.97;;;4.20;99.90;;;;;;5014198;28;20397;-62
2021/04/18 06:49:40;;;;;;;8.60;8.00;;;4.40;99.90;;;;;;5013773;28;20189;-63
2021/04/18 06:52:07;;;;;;;10.33;6.53;;;4.40;99.90;;;;;;5014120;28;20415;-61
2021/04/18 06:54:33;;;;;;;7.10;6.50;;;4.50;99.90;;;;;;5013895;28;20634;-62
2021/04/18 06:56:59;;;;;;;13.43;8.33;;;4.50;99.90;;;;;;5013833;28;20400;-63
2021/04/18 06:59:25;;;;;;;8.73;7.50;;;4.70;99.90;;;;;;5013182;28;20451;-63
2021/04/18 07:01:51;;;;;;;14.70;7.83;;;4.80;99.90;;;;;;5012868;28;20573;-63
2021/04/18 07:04:19;;;;;;;11.80;7.30;;;4.90;99.90;;;;;;5014166;28;20397;-63
2021/04/18 07:06:51;;;;;;;15.50;8.33;;;5.00;99.90;;;;;;5013815;28;20552;-63
2021/04/18 07:09:22;;;;;;;7.97;7.13;;;5.20;99.90;;;;;;5013264;28;20420;-63
2021/04/18 07:11:54;;;;;;;7.70;7.07;;;5.30;99.90;;;;;;5013397;28;20839;-62
2021/04/18 07:14:22;;;;;;;7.80;7.00;;;5.50;99.90;;;;;;5013824;28;20418;-63
2021/04/18 07:16:49;;;;;;;7.73;7.00;;;5.60;99.90;;;;;;5013645;28;20811;-63
2021/04/18 07:19:27;;;;;;;7.63;7.10;;;5.60;99.90;;;;;;5013034;28;20519;-62
2021/04/18 07:21:54;;;;;;;8.73;7.63;;;5.70;99.90;;;;;;5013430;28;20889;-62
2021/04/18 07:24:21;;;;;;;7.50;6.80;;;5.80;99.90;;;;;;5013261;28;20404;-63
2021/04/18 07:27:04;;;;;;;7.67;6.30;;;5.80;99.90;;;;;;5012425;28;20404;-62
2021/04/18 07:29:33;;;;;;;7.00;6.40;;;5.90;99.90;;;;;;5012187;28;20427;-62
2021/04/18 07:31:59;;;;;;;7.30;6.60;;;6.00;99.40;;;;;;5012778;28;20932;-62
2021/04/18 07:34:34;;;;;;;10.90;9.90;;;6.20;99.40;;;;;;5013118;28;20404;-61
2021/04/18 07:37:13;;;;;;;8.03;7.43;;;6.30;99.10;;;;;;5013220;28;20414;-62
2021/04/18 07:39:57;;;;;;;8.70;7.77;;;6.40;98.50;;;;;;5011636;28;20455;-62
2021/04/18 07:42:40;;;;;;;11.97;10.80;;;6.60;98.50;;;;;;5012685;28;20471;-62
2021/04/18 07:45:12;;;;;;;8.53;7.60;;;6.70;97.60;;;;;;5012860;28;20413;-62
2021/04/18 07:47:43;;;;;;;11.60;8.10;;;7.00;97.30;;;;;;5013255;28;20448;-63
2021/04/18 07:50:15;;;;;;;12.13;8.33;;;7.20;97.00;;;;;;5013021;28;20420;-62
2021/04/18 07:52:43;;;;;;;9.97;9.07;;;7.40;96.70;;;;;;5013319;28;20495;-62
2021/04/18 07:55:11;;;;;;;7.83;7.03;;;7.60;96.20;;;;;;5013042;28;20400;-63
2021/04/18 07:57:37;;;;;;;9.73;7.23;;;7.80;95.80;;;;;;5012936;28;20400;-62
2021/04/18 08:00:04;;;;;;;7.17;6.57;;;7.90;95.20;;;;;;5012436;28;20431;-63
2021/04/18 08:02:30;;;;;;;10.27;7.80;;;8.10;95.50;;;;;;5012557;28;20256;-62
2021/04/18 08:04:56;;;;;;;8.87;7.97;;;8.30;94.90;;;;;;5012605;28;20435;-62
2021/04/18 08:07:25;;;;;;;8.50;7.57;;;8.50;95.20;;;;;;5012590;28;20408;-62
2021/04/18 08:10:22;;;;;;;8.70;7.20;;;8.60;94.50;;;;;;5012410;28;20827;-63
2021/04/18 08:13:01;;;;;;;8.67;7.87;;;8.70;94.30;;;;;;5012321;28;20405;-62
2021/04/18 08:15:26;;;;;;;9.17;7.23;;;8.80;93.30;;;;;;5012469;28;20411;-62
2021/04/18 08:18:07;;;;;;;7.93;7.23;;;8.80;93.00;;;;;;5012281;28;20765;-63
2021/04/18 08:20:46;;;;;;;8.80;8.13;;;8.90;93.30;;;;;;5012034;28;20199;-62
2021/04/18 08:23:17;;;;;;;8.57;7.70;;;8.90;93.30;;;;;;5012283;28;20457;-63
2021/04/18 08:26:06;;;;;;;8.17;7.57;;;8.90;93.30;;;;;;5012498;28;20413;-62
2021/04/18 08:28:52;;;;;;;9.20;8.33;;;9.00;93.30;;;;;;5011908;28;20557;-63
2021/04/18 08:31:19;;;;;;;13.70;9.47;;;9.10;92.90;;;;;;5012080;28;20404;-63
2021/04/18 08:33:46;;;;;;;15.03;10.00;;;9.40;93.60;;;;;;5012153;28;20399;-63
2021/04/18 08:36:19;;;;;;;10.50;9.40;;;9.60;92.70;;;;;;5012160;28;20420;-63
2021/04/18 08:39:01;;;;;;;9.60;8.27;;;9.90;92.60;;;;;;5011924;28;20399;-62
2021/04/18 08:41:54;;;;;;;11.93;7.90;;;10.10;91.30;;;;;;5011853;28;20429;-62
2021/04/18 08:44:19;;;;;;;8.70;7.80;;;10.40;91.50;;;;;;5011129;28;20427;-63
2021/04/18 08:46:47;;;;;;;13.17;9.00;;;10.50;91.20;;;;;;5012107;28;20413;-62
2021/04/18 08:49:26;;;;;;;10.70;9.23;;;10.70;90.60;;;;;;5011844;28;20429;-63
2021/04/18 08:51:53;;;;;;;11.20;9.43;;;10.70;90.20;;;;;;5012482;28;20780;-63
2021/04/18 08:54:33;;;;;;;10.07;8.47;;;10.80;89.60;;;;;;5012397;28;20498;-63
2021/04/18 08:57:03;;;;;;;9.47;8.57;;;11.00;90.70;;;;;;5012197;28;20419;-63
2021/04/18 08:59:29;;;;;;;10.47;9.17;;;11.10;90.00;;;;;;5011637;28;20424;-63
2021/04/18 09:01:57;;;;;;;10.70;9.53;;;11.40;90.00;;;;;;5011977;28;20494;-63
2021/04/18 09:04:23;;;;;;;8.67;7.97;;;11.70;90.50;;;;;;5011956;28;20657;-63
2021/04/18 09:06:49;;;;;;;11.17;9.97;;;11.90;89.50;;;;;;5012064;28;20422;-63
2021/04/18 09:09:15;;;;;;;11.80;9.70;;;12.00;88.90;;;;;;5011691;28;20193;-63
2021/04/18 09:11:47;;;;;;;8.87;7.80;;;12.20;89.60;;;;;;5010706;28;20499;-63
2021/04/18 09:14:16;;;;;;;9.13;8.23;;;12.40;88.40;;;;;;5012005;28;20416;-62
2021/04/18 09:16:42;;;;;;;10.80;9.80;;;12.50;86.40;;;;;;5011753;28;20414;-64
2021/04/18 09:19:30;;;;;;;10.60;7.50;;;12.80;87.70;;;;;;5011404;28;20451;-63
2021/04/18 09:21:55;;;;;;;11.27;9.90;;;13.00;86.80;;;;;;5011846;28;20484;-63
2021/04/18 09:24:21;;;;;;;8.30;7.50;;;13.40;86.30;;;;;;5013644;28;20411;-63
2021/04/18 09:26:57;;;;;;;13.80;9.23;;;13.60;84.10;;;;;;5015553;28;20225;-63
2021/04/18 09:29:23;;;;;;;9.53;8.60;;;13.40;83.50;;;;;;5015290;28;20834;-64
2021/04/18 09:32:04;;;;;;;10.83;9.90;;;13.20;84.10;;;;;;5015542;28;20463;-62
2021/04/18 09:34:31;;;;;;;11.20;10.10;;;13.20;84.50;;;;;;5015589;28;20409;-64
2021/04/18 09:37:00;;;;;;;11.60;9.93;;;13.30;85.20;;;;;;5015332;28;20404;-64
2021/04/18 09:39:29;;;;;;;10.97;9.97;;;13.20;83.90;;;;;;5015082;28;20526;-63
2021/04/18 09:41:57;;;;;;;10.83;9.57;;;13.20;85.30;;;;;;5014989;28;20469;-63
2021/04/18 09:44:30;;;;;;;9.20;8.40;;;13.40;85.60;;;;;;5015216;28;20494;-64
2021/04/18 09:46:58;;;;;;;8.70;7.90;;;13.40;83.70;;;;;;5015115;28;20402;-62
2021/04/18 09:49:24;;;;;;;10.10;9.10;;;13.40;83.90;;;;;;5014627;28;20458;-63
2021/04/18 09:51:59;;;;;;;10.53;9.53;;;13.30;84.20;;;;;;5015119;28;20439;-63
2021/04/18 09:54:30;;;;;;;9.20;8.40;;;13.50;84.80;;;;;;5015539;28;20486;-62
2021/04/18 09:57:18;;;;;;;10.33;9.43;;;13.80;82.30;;;;;;5015087;28;20783;-61
2021/04/18 09:59:59;;;;;;;11.77;10.50;;;14.40;85.20;;;;;;5014584;28;20459;-62
2021/04/18 10:02:24;;;;;;;10.80;9.93;;;14.60;83.00;;;;;;5014786;28;20497;-60
2021/04/18 10:05:06;;;;;;;11.00;9.90;;;14.90;81.60;;;;;;5015183;28;20412;-61
2021/04/18 10:07:32;;;;;;;11.70;10.33;;;15.10;78.40;;;;;;5014976;28;20546;-62
2021/04/18 10:09:57;;;;;;;11.03;9.93;;;15.30;80.10;;;;;;5014377;28;20428;-60
2021/04/18 10:12:23;;;;;;;10.87;9.77;;;15.60;79.60;;;;;;5014800;28;20605;-62
2021/04/18 10:15:05;;;;;;;11.53;9.17;;;16.20;78.90;;;;;;5014643;28;20231;-62
2021/04/18 10:17:37;;;;;;;9.53;8.63;;;16.30;76.50;;;;;;5014518;28;20677;-62
2021/04/18 10:20:04;;;;;;;10.23;8.43;;;16.30;72.00;;;;;;5014289;28;20427;-62
2021/04/18 10:22:30;;;;;;;9.80;8.90;;;15.90;71.70;;;;;;5014360;28;20448;-62
2021/04/18 10:24:57;;;;;;;10.17;9.10;;;16.20;77.10;;;;;;5014441;28;20838;-61
2021/04/18 10:27:24;;;;;;;10.73;9.77;;;16.70;76.70;;;;;;5014319;28;20231;-62
2021/04/18 10:29:50;;;;;;;9.50;8.53;;;16.80;75.10;;;;;;5013828;28;20424;-60
2021/04/18 10:32:17;;;;;;;10.00;9.00;;;17.00;74.70;;;;;;5014402;28;20396;-62
2021/04/18 10:34:44;;;;;;;8.10;7.30;;;17.00;72.20;;;;;;5014239;28;20419;-62
2021/04/18 10:37:10;;;;;;;7.70;7.10;;;16.80;70.60;;;;;;5014318;28;20408;-61
2021/04/18 10:39:36;;;;;;;9.20;8.43;;;17.20;74.20;;;;;;5013677;28;20527;-62
2021/04/18 10:42:01;;;;;;;9.40;7.93;;;17.50;72.00;;;;;;5013875;28;20514;-62
2021/04/18 10:44:28;;;;;;;8.77;7.63;;;17.60;72.00;;;;;;5013927;28;20423;-62
2021/04/18 10:46:59;;;;;;;10.70;9.60;;;17.80;68.90;;;;;;5014114;28;20165;-61
2021/04/18 10:49:25;;;;;;;8.43;7.83;;;17.90;67.60;;;;;;5013647;28;20435;-62
2021/04/18 10:51:51;;;;;;;11.03;8.47;;;17.60;67.70;;;;;;5013964;28;20471;-62
2021/04/18 10:54:17;;;;;;;9.80;8.80;;;17.30;69.30;;;;;;5013822;28;20850;-61
2021/04/18 10:56:44;;;;;;;10.03;7.73;;;17.50;68.70;;;;;;5013728;28;20423;-62
2021/04/18 10:59:10;;;;;;;9.60;8.70;;;18.00;73.00;;;;;;5013213;28;20201;-63
2021/04/18 11:01:35;;;;;;;7.77;7.07;;;18.00;72.20;;;;;;5013640;28;20419;-62
2021/04/18 11:04:01;;;;;;;8.20;7.40;;;17.80;65.10;;;;;;5013695;28;20170;-60
2021/04/18 11:06:27;;;;;;;8.20;7.37;;;17.70;66.00;;;;;;5013826;28;20565;-63
2021/04/18 11:08:52;;;;;;;8.77;7.97;;;17.80;66.70;;;;;;5013243;28;20700;-62
2021/04/18 11:11:19;;;;;;;10.87;8.60;;;17.60;65.20;;;;;;5013469;28;20169;-63
2021/04/18 11:13:45;;;;;;;8.57;7.90;;;17.30;65.00;;;;;;5013392;28;20188;-63
2021/04/18 11:16:10;;;;;;;7.13;6.53;;;16.90;61.40;;;;;;5013505;28;20797;-63
2021/04/18 11:18:36;;;;;;;7.73;6.93;;;16.70;62.50;;;;;;5013025;28;20411;-62
2021/04/18 11:21:02;;;;;;;8.30;7.50;;;16.70;62.60;;;;;;5013307;28;20669;-61
2021/04/18 11:23:28;;;;;;;9.17;8.33;;;17.00;63.90;;;;;;5013273;28;20647;-62
2021/04/18 11:25:53;;;;;;;7.90;6.80;;;17.60;65.90;;;;;;5013196;28;20444;-62
2021/04/18 11:28:19;;;;;;;8.83;8.00;;;18.00;68.00;;;;;;5012780;28;20173;-63
2021/04/18 11:30:45;;;;;;;8.03;7.23;;;18.50;70.20;;;;;;5013225;28;20181;-63
2021/04/18 11:33:11;;;;;;;8.30;7.70;;;19.00;67.40;;;;;;5013159;28;20174;-61
2021/04/18 11:35:37;;;;;;;8.40;7.60;;;19.60;73.10;;;;;;5013238;28;20576;-62
2021/04/18 11:38:02;;;;;;;7.67;7.07;;;19.90;64.00;;;;;;5013017;28;20247;-63
2021/04/18 11:40:30;;;;;;;10.33;8.87;;;20.50;59.70;;;;;;5012421;28;20447;-62
2021/04/18 11:42:55;;;;;;;7.57;6.90;;;19.70;61.30;;;;;;5011751;28;20627;-63
2021/04/18 11:45:21;;;;;;;10.50;7.93;;;19.50;61.40;;;;;;5013098;28;20405;-62
2021/04/18 11:47:47;;;;;;;7.77;7.10;;;19.20;60.40;;;;;;5012337;28;20173;-63
2021/04/18 11:50:14;;;;;;;8.97;8.17;;;18.90;60.90;;;;;;5012490;28;20187;-64
2021/04/18 11:52:40;;;;;;;7.13;6.53;;;18.90;61.90;;;;;;5012844;28;20220;-63
2021/04/18 11:55:08;;;;;;;6.30;5.90;;;18.40;58.60;;;;;;5012667;28;20865;-63
2021/04/18 11:57:34;;;;;;;6.30;5.80;;;17.90;59.60;;;;;;5012777;28;20783;-63
2021/04/18 12:00:00;;;;;;;8.47;7.87;;;17.60;59.50;;;;;;5012450;28;20424;-63
2021/04/18 12:02:25;;;;;;;8.60;7.77;;;17.40;58.30;;;;;;5012648;28;20452;-63
2021/04/18 12:04:51;;;;;;;9.07;7.93;;;17.10;59.50;;;;;;5012622;28;20703;-61
2021/04/18 12:07:16;;;;;;;7.63;6.87;;;16.90;59.30;;;;;;5012691;28;20164;-63
2021/04/18 12:09:42;;;;;;;8.43;7.63;;;16.80;60.80;;;;;;5011937;28;20219;-62
2021/04/18 12:12:08;;;;;;;7.53;6.83;;;16.60;58.80;;;;;;5012795;28;20197;-62
2021/04/18 12:14:34;;;;;;;8.43;6.80;;;16.50;59.30;;;;;;5012539;28;20428;-63
2021/04/18 12:16:59;;;;;;;7.90;7.10;;;16.20;59.60;;;;;;5012437;28;20981;-63
2021/04/18 12:19:25;;;;;;;7.77;7.17;;;15.90;59.00;;;;;;5012158;28;20647;-63
2021/04/18 12:21:50;;;;;;;15.50;8.80;;;15.60;60.60;;;;;;5012364;28;20793;-63
2021/04/18 12:24:16;;;;;;;9.47;8.57;;;15.40;59.40;;;;;;5012171;28;20165;-63
2021/04/18 12:26:42;;;;;;;8.37;7.60;;;15.30;59.90;;;;;;5012535;28;20227;-63
2021/04/18 12:29:07;;;;;;;7.70;6.70;;;15.20;62.70;;;;;;5012098;28;20168;-63
2021/04/18 12:31:36;;;;;;;9.13;7.30;;;15.00;65.50;;;;;;5012288;28;20248;-63
2021/04/18 12:34:02;;;;;;;7.47;6.77;;;14.90;65.80;;;;;;5012211;28;20181;-63
2021/04/18 12:36:28;;;;;;;8.83;8.00;;;14.70;67.80;;;;;;5012184;28;20783;-63
2021/04/18 12:38:54;;;;;;;9.20;7.60;;;14.70;68.90;;;;;;5011510;28;20408;-63
2021/04/18 12:41:19;;;;;;;9.60;7.93;;;14.70;68.60;;;;;;5012047;28;20708;-63
2021/04/18 12:43:45;;;;;;;11.60;8.30;;;14.70;68.70;;;;;;5011951;28;20204;-63
2021/04/18 12:46:10;;;;;;;9.63;8.73;;;14.50;68.70;;;;;;5012259;28;20178;-63
2021/04/18 12:48:36;;;;;;;9.63;7.90;;;14.50;68.10;;;;;;5011650;28;20169;-63
2021/04/18 12:51:02;;;;;;;7.93;7.20;;;14.40;67.30;;;;;;5011887;28;20240;-63